KBGM METAR

Date/Time (Local) Flight Rules Wind Clouds Visibility Temperature Dewpoint Altimeter Remarks
09/16 5:53 pm VFR Calm OVC 4600 10.0sm 20.6°C / 68°F 15.0°C / 59°F 30.239174
09/16 4:53 pm VFR Calm OVC 4300 10.0sm 20.6°C / 68°F 13.9°C / 55.4°F 30.230314
09/16 3:53 pm VFR Calm FEW 4200 10.0sm 21.1°C / 69.8°F 13.9°C / 55.4°F 30.239174
09/16 2:53 pm VFR 110° @ 5 kts CLR 10.0sm 20.0°C / 68°F 13.3°C / 55.4°F 30.250984
09/16 2:21 pm SPECI VFR 110° @ 6 kts FEW 2800 10.0sm 20.6°C / 68°F 13.3°C / 55.4°F 30.250984
09/16 1:53 pm MVFR Calm BKN 2600 10.0sm 20.0°C / 68°F 14.4°C / 57.2°F 30.259842
09/16 1:38 pm VFR 150° @ 4 kts SCT 2600 10.0sm 19.4°C / 66.2°F 13.9°C / 55.4°F 30.259842
09/16 1:05 pm MVFR 140° @ 6 kts BKN 2300 10.0sm 18.9°C / 64.4°F 14.4°C / 57.2°F 30.259842
09/16 12:53 pm VFR 140° @ 6 kts SCT 2300 10.0sm 18.9°C / 64.4°F 14.4°C / 57.2°F 30.259842
09/16 12:38 pm SPECI VFR 130° @ 5 kts FEW 1700 SCT 2300 10.0sm 17.8°C / 62.6°F 13.9°C / 55.4°F 30.259842
09/16 12:17 pm SPECI MVFR 120° @ 5 kts BKN 1700 10.0sm 17.8°C / 62.6°F 13.9°C / 55.4°F 30.268702
09/16 11:53 am SPECI VFR 110° @ 8 kts FEW 1400 10.0sm 17.8°C / 62.6°F 13.9°C / 55.4°F 30.268702
09/16 11:15 am SPECI VFR 100° @ 7 kts SCT 1100 SCT 1600 10.0sm 16.7°C / 60.8°F 13.9°C / 55.4°F 30.268702
09/16 10:53 am MVFR 70° @ 7 kts OVC 1100 10.0sm 15.6°C / 59°F 13.3°C / 55.4°F 30.268702
Show/Hide History...

BGM AFD

.AVIATION /20Z THURSDAY THROUGH TUESDAY/...
Mainly VFR conditions are expected at all terminals through this
evening. Marine layer moisture will then bring lowering ceilings
late tonight/early Friday morning at all terminals except for
KSYR. Best chance for IFR restrictions will be at KAVP, KBGM,
and KELM. At KELM, is a bit uncertain if restrictions will be
from low ceilings or fog, but either way, IFR-or-worse
conditions are likely there late tonight. Conditions will
gradually improve by late Friday morning.

There is a slight chance for an isolated shower at KAVP late
this afternoon into this evening, but potential for this is too
low to include in the TAF there at this time.


Outlook...

Friday afternoon through Saturday...Small chances of scattered
showers/isolated thunder with associated brief restrictions.

Saturday night through Tuesday...VFR, except late night-early
morning valley fog probable beginning Sunday night for at least
KELM; possibly others.

Nearby AWOS/ASOS

KBGM: Binghamton 607-729-8335 128.15
KCZG: Tri-Cities 607-785-2926 119.075
N23: Sidney 607-561-2333 118.275
KOIC: Norwich 607-336-8583 119.025
N03: Cortland 607-753-9784 132.225
KAVP: Scranton 570-655-0748 111.6 (VOR)

KBGM TAF

Date/Time (Local) Flight Rules Wind Clouds Visibility (sm)  
09/16 2:00 pm thru 09/17 3:00 am VFR 120° @ 4 kts BKN 3500 >= 6
09/17 3:00 am thru 09/17 5:00 am FM MVFR 140° @ 4 kts BKN 2500 4.0 Mist
09/17 5:00 am thru 09/17 10:00 am FM IFR 140° @ 4 kts BKN 900 3.0 Mist
09/17 10:00 am thru 09/17 1:00 pm FM MVFR 150° @ 5 kts BKN 1500 >= 6
09/17 1:00 pm thru 09/17 2:00 pm FM MVFR 160° @ 6 kts BKN 2500 >= 6

KELM METAR

Date/Time (Local) Flight Rules Wind Clouds Visibility Temperature Dewpoint Altimeter Remarks
09/16 5:53 pm VFR 150° @ 3 kts OVC 4900 10.0sm 22.8°C / 71.6°F 15.0°C / 59°F 30.200787
09/16 4:53 pm VFR Calm CLR 10.0sm 23.3°C / 73.4°F 14.4°C / 57.2°F 30.188976
09/16 3:53 pm VFR Calm CLR 10.0sm 23.3°C / 73.4°F 14.4°C / 57.2°F 30.209646
09/16 2:53 pm VFR 100° @ 4 kts FEW 3000 10.0sm 22.2°C / 71.6°F 14.4°C / 57.2°F 30.221457
09/16 1:53 pm VFR 150° @ 6 kts FEW 2700 10.0sm 21.7°C / 69.8°F 14.4°C / 57.2°F 30.239174
09/16 1:33 pm SPECI VFR Variable @ 5 kts SCT 2800 10.0sm 21.7°C / 69.8°F 14.4°C / 57.2°F 30.239174
09/16 1:19 pm SPECI MVFR 120° @ 5 kts BKN 2800 10.0sm 21.1°C / 69.8°F 14.4°C / 57.2°F 30.239174
09/16 12:53 pm MVFR 120° @ 8 kts FEW 2300 BKN 3000 10.0sm 21.1°C / 69.8°F 15.6°C / 59°F 30.250984
09/16 12:46 pm SPECI MVFR 170° @ 7 kts SCT 2100 OVC 3000 10.0sm 21.1°C / 69.8°F 15.0°C / 59°F 30.250984
09/16 11:53 am MVFR 50° @ 6 kts SCT 2200 BKN 2900 10.0sm 20.0°C / 68°F 14.4°C / 57.2°F 30.250984
09/16 10:53 am MVFR Calm BKN 1700 OVC 2200 10.0sm 19.4°C / 66.2°F 15.0°C / 59°F 30.250984
Show/Hide History...

KITH METAR

Date/Time (Local) Flight Rules Wind Clouds Visibility Temperature Dewpoint Altimeter Remarks
09/16 5:56 pm VFR 110° @ 3 kts BKN 4200 10.0sm 23.9°C / 73.4°F 13.9°C / 55.4°F 30.230314
09/16 4:56 pm VFR 150° @ 4 kts FEW 3000 10.0sm 23.9°C / 73.4°F 14.4°C / 57.2°F 30.230314
09/16 3:56 pm VFR Variable @ 3 kts SCT 3800 10.0sm 23.9°C / 73.4°F 13.9°C / 55.4°F 30.230314
09/16 2:56 pm VFR Variable @ 3 kts SCT 4200 10.0sm 22.2°C / 71.6°F 14.4°C / 57.2°F 30.239174
09/16 1:56 pm VFR Variable @ 3 kts BKN 3800 10.0sm 21.7°C / 69.8°F 14.4°C / 57.2°F 30.250984
09/16 12:56 pm VFR Variable @ 5 kts BKN 3200 10.0sm 22.2°C / 71.6°F 13.9°C / 55.4°F 30.259842
09/16 11:56 am MVFR 120° @ 4 kts BKN 2300 10.0sm 21.1°C / 69.8°F 14.4°C / 57.2°F 30.268702
09/16 11:29 am SPECI MVFR 80° @ 4 kts BKN 1400 10.0sm 19.0°C / 66.2°F 14.0°C / 57.2°F 30.268702
09/16 10:56 am MVFR Variable @ 4 kts FEW 1000 BKN 1500 10.0sm 18.3°C / 64.4°F 15.0°C / 59°F 30.268702
Show/Hide History...

KAVP METAR

Date/Time (Local) Flight Rules Wind Clouds Visibility Temperature Dewpoint Altimeter Remarks
09/16 5:54 pm VFR 130° @ 5 kts OVC 3600 10.0sm 23.3°C / 73.4°F 17.2°C / 62.6°F 30.221457
09/16 4:54 pm VFR 70° @ 4 kts SCT 3200 10.0sm 23.9°C / 73.4°F 18.3°C / 64.4°F 30.200787
09/16 3:54 pm VFR Calm OVC 3100 10.0sm 23.9°C / 73.4°F 17.8°C / 62.6°F 30.200787
09/16 2:54 pm VFR Calm FEW 2800 OVC 3400 10.0sm 23.9°C / 73.4°F 17.8°C / 62.6°F 30.209646
09/16 1:54 pm VFR 40° @ 4 kts OVC 4000 10.0sm 23.9°C / 73.4°F 17.8°C / 62.6°F 30.230314
09/16 12:54 pm VFR 30° @ 6 kts SCT 2300 OVC 3500 10.0sm 23.3°C / 73.4°F 17.8°C / 62.6°F 30.230314
09/16 11:54 am VFR 10° @ 5 kts FEW 1600 BKN 5000 10.0sm 22.8°C / 71.6°F 17.8°C / 62.6°F 30.239174
09/16 11:36 am SPECI VFR 330° @ 4 kts SCT 1600 10.0sm 22.2°C / 71.6°F 17.2°C / 62.6°F 30.239174
09/16 11:21 am SPECI MVFR 350° @ 3 kts BKN 1500 OVC 3500 10.0sm 21.7°C / 69.8°F 17.2°C / 62.6°F 30.239174
09/16 10:54 am VFR 30° @ 3 kts FEW 1400 OVC 3500 10.0sm 21.1°C / 69.8°F 16.7°C / 60.8°F 30.250984
Show/Hide History...

KSYR METAR

Date/Time (Local) Flight Rules Wind Clouds Visibility Temperature Dewpoint Altimeter Remarks
09/16 5:54 pm VFR 50° @ 5 kts FEW 5000 10.0sm 23.3°C / 73.4°F 15.6°C / 59°F 30.209646
09/16 4:54 pm VFR 50° @ 8 kts FEW 4000 SCT 5000 10.0sm 23.9°C / 73.4°F 15.6°C / 59°F 30.209646
09/16 3:54 pm VFR 80° @ 5 kts SCT 4000 BKN 5000 10.0sm 23.3°C / 73.4°F 16.1°C / 60.8°F 30.221457
09/16 2:54 pm VFR 70° @ 7 kts FEW 4200 10.0sm 23.3°C / 73.4°F 15.6°C / 59°F 30.230314
09/16 1:54 pm VFR Variable @ 4 kts FEW 3600 10.0sm 23.9°C / 73.4°F 15.0°C / 59°F 30.239174
09/16 12:54 pm VFR 60° @ 3 kts FEW 2700 FEW 25000 10.0sm 23.3°C / 73.4°F 15.0°C / 59°F 30.250984
09/16 11:54 am VFR 80° @ 7 kts FEW 2700 10.0sm 22.2°C / 71.6°F 15.0°C / 59°F 30.250984
09/16 10:54 am VFR Variable @ 3 kts FEW 1600 FEW 2700 10.0sm 21.1°C / 69.8°F 16.7°C / 60.8°F 30.259842
Show/Hide History...